createdAt,value
2023-04-15T00:01:10.193Z,7.63
2023-04-15T00:03:37.797Z,7.20
2023-04-15T00:06:05.416Z,8.25
2023-04-15T00:08:32.552Z,11.55
2023-04-15T00:11:03.247Z,9.80
2023-04-15T00:13:30.948Z,4.63
2023-04-15T00:15:58.432Z,12.60
2023-04-15T00:18:25.819Z,11.95
2023-04-15T00:20:53.597Z,8.80
2023-04-15T00:23:20.892Z,11.85
2023-04-15T00:25:48.170Z,8.35
2023-04-15T00:28:15.329Z,8.85
2023-04-15T00:30:42.867Z,10.40
2023-04-15T00:33:10.387Z,14.02
2023-04-15T00:35:37.851Z,11.45
2023-04-15T00:38:06.463Z,12.30
2023-04-15T00:40:33.943Z,9.18
2023-04-15T00:43:01.414Z,12.20
2023-04-15T00:45:28.886Z,6.07
2023-04-15T00:47:56.962Z,8.70
2023-04-15T00:50:24.261Z,11.18
2023-04-15T00:52:52.088Z,11.07
2023-04-15T00:55:19.497Z,7.30
2023-04-15T00:57:47.120Z,11.65
2023-04-15T01:00:14.587Z,14.65
2023-04-15T01:02:42.359Z,13.68
2023-04-15T01:05:09.794Z,12.77
2023-04-15T01:07:37.046Z,16.40
2023-04-15T01:10:04.990Z,16.80
2023-04-15T01:12:34.030Z,13.55
2023-04-15T01:15:02.404Z,7.72
2023-04-15T01:17:30.226Z,19.98
2023-04-15T01:20:00.280Z,16.88
2023-04-15T01:22:28.972Z,18.02
2023-04-15T01:25:09.262Z,19.65
2023-04-15T01:27:41.494Z,20.73
2023-04-15T01:30:09.576Z,17.63
2023-04-15T01:32:37.099Z,13.63
2023-04-15T01:35:24.182Z,17.13
2023-04-15T01:37:51.447Z,15.82
2023-04-15T01:40:18.683Z,19.05
2023-04-15T01:42:47.182Z,16.25
2023-04-15T01:45:15.696Z,16.10
2023-04-15T01:47:44.048Z,8.30
2023-04-15T01:50:12.430Z,18.95
2023-04-15T01:52:40.968Z,17.92
2023-04-15T01:55:09.984Z,9.90
2023-04-15T01:57:38.375Z,10.48
2023-04-15T02:00:07.927Z,11.63
2023-04-15T02:02:36.341Z,13.07
2023-04-15T02:05:05.803Z,14.07
2023-04-15T02:07:34.272Z,8.98
2023-04-15T02:10:03.710Z,14.50
2023-04-15T02:12:32.040Z,22.15
2023-04-15T02:15:00.604Z,10.43
2023-04-15T02:17:29.108Z,17.20
2023-04-15T02:19:57.438Z,12.40
2023-04-15T02:22:25.889Z,11.60
2023-04-15T02:24:54.879Z,13.57
2023-04-15T02:27:23.300Z,12.10
2023-04-15T02:29:52.310Z,15.38
2023-04-15T02:32:23.387Z,8.43
2023-04-15T02:34:51.922Z,14.57
2023-04-15T02:37:20.666Z,13.43
2023-04-15T02:39:49.170Z,9.50
2023-04-15T02:42:17.544Z,5.38
2023-04-15T02:44:46.007Z,7.00
2023-04-15T02:47:15.112Z,7.68
2023-04-15T02:49:43.489Z,5.07
2023-04-15T02:52:11.887Z,5.30
2023-04-15T02:54:40.207Z,7.00
2023-04-15T02:57:08.612Z,8.88
2023-04-15T02:59:37.040Z,9.98
2023-04-15T03:02:07.925Z,8.57
2023-04-15T03:04:36.399Z,11.75
2023-04-15T03:07:04.668Z,10.32
2023-04-15T03:09:33.314Z,6.55
2023-04-15T03:12:01.837Z,8.93
2023-04-15T03:14:30.158Z,10.13
2023-04-15T03:16:59.698Z,7.40
2023-04-15T03:19:27.988Z,8.13
2023-04-15T03:21:56.452Z,12.65
2023-04-15T03:24:25.072Z,9.30
2023-04-15T03:26:53.314Z,9.52
2023-04-15T03:29:21.726Z,6.10
2023-04-15T03:31:50.084Z,8.75
2023-04-15T03:34:18.424Z,15.98
2023-04-15T03:36:47.294Z,9.65
2023-04-15T03:39:16.134Z,4.68
2023-04-15T03:41:44.589Z,5.50
2023-04-15T03:44:13.226Z,5.30
2023-04-15T03:46:41.876Z,8.15
2023-04-15T03:49:10.964Z,6.32
2023-04-15T03:51:39.354Z,4.05
2023-04-15T03:54:07.698Z,9.75
2023-04-15T03:56:36.075Z,6.78
2023-04-15T03:59:04.530Z,9.27
2023-04-15T04:01:32.931Z,3.13
2023-04-15T04:04:01.572Z,2.92
2023-04-15T04:06:30.091Z,6.05
2023-04-15T04:08:58.454Z,6.43
2023-04-15T04:11:28.351Z,6.45
2023-04-15T04:13:56.752Z,9.63
2023-04-15T04:16:25.174Z,4.07
2023-04-15T04:18:53.762Z,4.20
2023-04-15T04:21:22.180Z,5.72
2023-04-15T04:23:51.040Z,7.43
2023-04-15T04:26:19.931Z,4.70
2023-04-15T04:28:48.389Z,5.60
2023-04-15T04:31:17.245Z,5.68
2023-04-15T04:33:45.583Z,4.18
2023-04-15T04:36:13.985Z,6.95
2023-04-15T04:38:42.368Z,6.00
2023-04-15T04:41:10.831Z,5.47
2023-04-15T04:43:39.183Z,11.23
2023-04-15T04:46:07.551Z,3.25
2023-04-15T04:48:36.044Z,6.95
2023-04-15T04:51:04.865Z,4.40
2023-04-15T04:53:33.214Z,3.70
2023-04-15T04:56:01.863Z,6.22
2023-04-15T04:58:30.237Z,3.22
2023-04-15T05:00:58.547Z,4.78
2023-04-15T05:03:27.534Z,6.18
2023-04-15T05:05:56.020Z,4.80
2023-04-15T05:08:24.250Z,8.40
2023-04-15T05:10:52.536Z,6.15
2023-04-15T05:13:21.712Z,5.53
2023-04-15T05:18:18.148Z,8.30
2023-04-15T05:20:46.616Z,5.30
2023-04-15T05:23:14.812Z,4.00
2023-04-15T05:25:43.478Z,6.22
2023-04-15T05:28:12.496Z,5.82
2023-04-15T05:30:41.246Z,4.10
2023-04-15T05:33:09.583Z,3.88
2023-04-15T05:35:37.875Z,6.10
2023-04-15T05:38:06.453Z,8.02
2023-04-15T05:40:34.736Z,5.25
2023-04-15T05:43:03.067Z,5.38
2023-04-15T05:45:31.959Z,8.20
2023-04-15T05:48:00.188Z,7.05
2023-04-15T05:50:28.430Z,11.15
2023-04-15T05:52:56.791Z,6.55
2023-04-15T05:55:25.025Z,6.57
2023-04-15T05:57:53.290Z,6.70
2023-04-15T06:00:21.573Z,4.80
2023-04-15T06:02:50.301Z,11.65
2023-04-15T06:05:19.083Z,6.68
2023-04-15T06:07:48.552Z,8.80
2023-04-15T06:10:17.018Z,4.65
2023-04-15T06:12:45.998Z,5.05
2023-04-15T06:15:14.258Z,4.68
2023-04-15T06:17:42.603Z,5.82
2023-04-15T06:20:11.576Z,8.88
2023-04-15T06:22:39.754Z,6.25
2023-04-15T06:25:09.390Z,7.53
2023-04-15T06:27:38.116Z,6.30
2023-04-15T06:30:07.540Z,6.53
2023-04-15T06:32:36.067Z,8.20
2023-04-15T06:35:04.476Z,9.23
2023-04-15T06:37:32.774Z,12.85
2023-04-15T06:40:01.433Z,8.75
2023-04-15T06:42:29.895Z,11.05
2023-04-15T06:44:58.128Z,8.50
2023-04-15T06:47:26.835Z,7.82
2023-04-15T06:49:55.121Z,9.82
2023-04-15T06:52:23.350Z,9.15
2023-04-15T06:54:51.877Z,12.18
2023-04-15T06:57:20.046Z,13.82
2023-04-15T06:59:48.232Z,9.88
2023-04-15T07:02:16.677Z,10.48
2023-04-15T07:04:45.722Z,9.68
